Time;durP1;ratioP1;P1;durP2;ratioP2;P2;SDS_P1;SDS_P2;PMS_P1;PMS_P2;Temp;Humidity;BMP_temperature;BMP_pressure;BME280_temperature;BME280_humidity;BME280_pressure;Samples;Min_cycle;Max_cycle;Signal;HPM_P1;HPM_P2
2022/06/16 00:01:50;;;;;;;5.57;3.08;;;21.50;86.60;;;;;;5035162;28;20502;-82
2022/06/16 00:04:15;;;;;;;4.32;3.38;;;21.50;86.20;;;;;;5050043;28;20111;-80
2022/06/16 00:06:41;;;;;;;3.38;2.97;;;21.40;87.00;;;;;;5034140;28;20029;-80
2022/06/16 00:09:07;;;;;;;5.88;3.22;;;21.30;87.60;;;;;;5033542;28;20434;-81
2022/06/16 00:11:33;;;;;;;5.10;3.17;;;21.30;87.80;;;;;;5033889;28;20032;-81
2022/06/16 00:13:58;;;;;;;5.45;3.42;;;21.30;87.80;;;;;;5050302;28;20037;-81
2022/06/16 00:16:24;;;;;;;5.25;3.47;;;21.20;87.80;;;;;;5023448;28;20390;-82
2022/06/16 00:18:49;;;;;;;5.43;3.47;;;21.20;88.70;;;;;;5015268;28;20029;-83
2022/06/16 00:21:16;;;;;;;6.20;3.40;;;21.10;89.20;;;;;;5014829;28;20026;-83
2022/06/16 00:23:42;;;;;;;3.85;3.20;;;21.20;89.30;;;;;;5015147;28;20022;-83
2022/06/16 00:26:27;;;;;;;4.35;3.40;;;21.20;89.00;;;;;;5030048;28;20034;-83
2022/06/16 00:28:53;;;;;;;5.55;3.50;;;21.20;89.60;;;;;;5015061;28;20096;-83
2022/06/16 00:31:21;;;;;;;6.03;3.30;;;21.10;89.20;;;;;;5014479;28;20053;-83
2022/06/16 00:33:47;;;;;;;4.90;3.53;;;21.10;89.60;;;;;;5013547;28;20539;-83
2022/06/16 00:36:13;;;;;;;4.88;3.30;;;21.10;89.60;;;;;;5014594;28;20064;-83
2022/06/16 00:38:39;;;;;;;5.60;3.70;;;21.00;89.70;;;;;;5030494;28;20498;-83
2022/06/16 00:41:06;;;;;;;4.28;3.28;;;21.00;90.30;;;;;;5014213;28;20044;-81
2022/06/16 00:43:32;;;;;;;5.65;3.40;;;20.90;90.30;;;;;;5030366;28;20026;-85
2022/06/16 00:46:02;;;;;;;5.93;3.70;;;20.80;90.50;;;;;;5014484;28;20360;-84
2022/06/16 00:48:32;;;;;;;5.82;3.88;;;20.80;90.60;;;;;;5030386;28;20054;-85
2022/06/16 00:51:09;;;;;;;5.20;3.40;;;20.70;91.10;;;;;;5029983;28;20026;-84
2022/06/16 00:53:36;;;;;;;6.00;3.63;;;20.60;91.90;;;;;;5014660;28;20057;-84
2022/06/16 00:56:03;;;;;;;3.92;3.42;;;20.60;91.90;;;;;;5029717;28;20030;-84
2022/06/16 00:58:31;;;;;;;6.65;3.60;;;20.50;91.80;;;;;;5030288;28;20029;-84
2022/06/16 01:00:57;;;;;;;6.53;3.75;;;20.40;92.00;;;;;;5014408;28;20491;-83
2022/06/16 01:06:23;;;;;;;6.43;3.33;;;20.30;92.40;;;;;;5013851;28;20061;-83
2022/06/16 01:09:00;;;;;;;4.40;3.53;;;20.30;92.30;;;;;;5029918;28;20079;-84
2022/06/16 01:14:29;;;;;;;4.65;3.63;;;20.20;92.60;;;;;;5013839;28;20064;-82
2022/06/16 01:17:01;;;;;;;4.65;3.38;;;20.20;92.30;;;;;;5014343;28;20030;-83
2022/06/16 01:19:38;;;;;;;;;;;20.10;92.60;;;;;;5015156;28;20025;-83
2022/06/16 01:22:14;;;;;;;3.97;3.08;;;20.10;93.10;;;;;;5014117;28;19906;-84
2022/06/16 01:25:09;;;;;;;5.88;3.03;;;20.20;92.70;;;;;;5029934;28;20105;-83
2022/06/16 01:27:54;;;;;;;4.18;3.30;;;20.10;92.40;;;;;;5029399;28;20061;-83
2022/06/16 01:30:43;;;;;;;4.53;3.30;;;20.10;92.60;;;;;;5029149;28;20463;-83
2022/06/16 01:33:23;;;;;;;4.78;3.38;;;20.10;92.90;;;;;;5012236;28;20038;-83
2022/06/16 01:36:03;;;;;;;5.25;3.40;;;20.00;93.10;;;;;;5029540;28;20104;-83
2022/06/16 01:38:45;;;;;;;7.47;3.53;;;19.90;93.10;;;;;;5029830;28;20053;-83
2022/06/16 01:41:24;;;;;;;5.13;3.30;;;19.90;93.30;;;;;;5029366;28;20030;-82
2022/06/16 01:44:07;;;;;;;3.95;3.28;;;19.80;93.50;;;;;;5014024;28;20053;-82
2022/06/16 01:46:38;;;;;;;5.70;3.30;;;19.80;93.40;;;;;;5033247;28;20038;-83
2022/06/16 01:49:12;;;;;;;4.60;3.30;;;19.80;93.10;;;;;;5033214;28;20114;-83
2022/06/16 01:51:43;;;;;;;3.80;3.30;;;19.80;93.20;;;;;;5018236;28;20061;-84
2022/06/16 01:54:30;;;;;;;5.05;3.33;;;19.80;93.30;;;;;;5032887;28;20076;-83
2022/06/16 01:57:19;;;;;;;5.43;3.47;;;19.70;93.30;;;;;;5035093;28;20084;-83
2022/06/16 02:00:06;;;;;;;9.35;3.28;;;19.70;93.30;;;;;;5022915;28;20057;-83
2022/06/16 02:02:35;;;;;;;6.13;3.30;;;19.70;93.40;;;;;;5033705;28;20480;-83
2022/06/16 02:05:19;;;;;;;4.30;3.20;;;19.70;93.40;;;;;;5033105;28;20121;-83
2022/06/16 02:07:52;;;;;;;5.18;3.58;;;19.70;93.50;;;;;;5033341;28;20034;-83
2022/06/16 02:10:24;;;;;;;6.88;3.25;;;19.70;93.40;;;;;;5032808;28;20121;-83
2022/06/16 02:12:58;;;;;;;5.57;3.40;;;19.80;93.00;;;;;;5033128;28;20117;-83
2022/06/16 02:15:43;;;;;;;7.65;3.30;;;19.60;92.90;;;;;;5032661;28;20033;-83
2022/06/16 02:18:11;;;;;;;5.18;3.10;;;19.50;93.50;;;;;;5032532;28;20036;-84
2022/06/16 02:21:06;;;;;;;6.22;3.63;;;19.50;93.60;;;;;;5017618;28;20080;-84
2022/06/16 02:23:33;;;;;;;6.10;3.28;;;19.40;94.20;;;;;;5033014;28;20033;-84
2022/06/16 02:25:59;;;;;;;4.40;3.15;;;19.50;94.30;;;;;;5032724;28;20034;-84
2022/06/16 02:28:26;;;;;;;6.13;3.28;;;19.40;94.40;;;;;;5032513;28;20471;-83
2022/06/16 02:31:10;;;;;;;3.65;3.00;;;19.30;94.70;;;;;;5017533;28;20109;-83
2022/06/16 02:34:01;;;;;;;5.85;3.60;;;19.30;95.00;;;;;;5032969;28;20422;-82
2022/06/16 02:36:57;;;;;;;4.90;3.30;;;19.30;95.10;;;;;;5016766;28;20042;-82
2022/06/16 02:39:37;;;;;;;6.35;3.10;;;19.10;95.20;;;;;;5016589;28;20022;-82
2022/06/16 02:42:03;;;;;;;5.28;3.70;;;19.20;95.40;;;;;;5032641;28;20030;-81
2022/06/16 02:44:43;;;;;;;3.83;3.25;;;19.20;95.20;;;;;;5031848;28;20053;-81
2022/06/16 02:47:23;;;;;;;5.95;3.40;;;19.20;95.30;;;;;;5033150;28;20084;-83
2022/06/16 02:50:02;;;;;;;5.80;3.50;;;19.20;95.00;;;;;;5033439;28;20026;-82
2022/06/16 02:52:39;;;;;;;4.55;3.40;;;19.10;95.50;;;;;;5017057;28;20105;-82
2022/06/16 02:55:20;;;;;;;5.53;3.38;;;19.10;95.60;;;;;;5017685;28;20036;-83
2022/06/16 02:57:50;;;;;;;5.05;3.22;;;19.10;95.60;;;;;;5031252;28;20065;-83
2022/06/16 03:00:25;;;;;;;6.00;3.72;;;19.10;95.30;;;;;;5032001;28;20030;-83
2022/06/16 03:02:51;;;;;;;5.72;3.13;;;19.10;95.70;;;;;;5017470;28;20026;-83
2022/06/16 03:05:17;;;;;;;8.68;3.38;;;19.10;95.40;;;;;;5016366;28;20048;-83
2022/06/16 03:07:44;;;;;;;4.68;3.13;;;19.10;95.50;;;;;;5032060;28;20379;-80
2022/06/16 03:10:13;;;;;;;5.57;3.58;;;19.00;95.70;;;;;;5016109;28;20048;-81
2022/06/16 03:12:38;;;;;;;4.82;3.45;;;19.00;95.70;;;;;;5031982;28;20026;-80
2022/06/16 03:15:05;;;;;;;4.80;3.45;;;19.00;95.90;;;;;;5016124;28;20029;-80
2022/06/16 03:17:31;;;;;;;6.50;3.83;;;19.00;95.60;;;;;;5031477;28;20022;-80
2022/06/16 03:20:00;;;;;;;6.43;3.92;;;19.10;95.70;;;;;;5031683;28;20030;-80
2022/06/16 03:22:26;;;;;;;6.65;3.58;;;19.20;95.70;;;;;;5031273;28;20025;-80
2022/06/16 03:24:51;;;;;;;5.68;3.53;;;19.30;95.50;;;;;;5031534;28;20037;-80
2022/06/16 03:27:17;;;;;;;5.43;3.40;;;19.40;95.30;;;;;;5015550;28;20033;-80
2022/06/16 03:29:43;;;;;;;6.00;3.63;;;19.50;95.20;;;;;;5031393;28;20026;-80
2022/06/16 03:32:09;;;;;;;4.78;3.35;;;19.50;95.10;;;;;;5030695;28;20021;-79
2022/06/16 03:34:34;;;;;;;5.97;3.47;;;19.60;95.10;;;;;;5015483;28;20042;-78
2022/06/16 03:37:00;;;;;;;5.47;3.20;;;19.60;95.50;;;;;;5015833;28;20448;-79
2022/06/16 03:39:26;;;;;;;5.53;3.30;;;19.60;95.40;;;;;;5015098;28;20054;-78
2022/06/16 03:41:52;;;;;;;5.78;3.42;;;19.60;95.40;;;;;;5030820;28;20061;-78
2022/06/16 03:44:17;;;;;;;4.60;3.53;;;19.60;95.20;;;;;;5030069;28;20081;-79
2022/06/16 03:46:43;;;;;;;5.47;3.53;;;19.60;95.70;;;;;;5030175;28;20037;-78
2022/06/16 03:49:09;;;;;;;6.05;3.45;;;19.50;96.40;;;;;;5030167;28;20029;-81
2022/06/16 03:51:35;;;;;;;7.00;3.47;;;19.50;96.30;;;;;;5030926;28;20088;-78
2022/06/16 03:54:02;;;;;;;5.97;3.58;;;19.50;96.10;;;;;;5030510;28;20029;-79
2022/06/16 03:56:27;;;;;;;6.57;3.42;;;19.40;96.60;;;;;;5030280;28;20030;-79
2022/06/16 03:58:55;;;;;;;5.28;3.15;;;19.40;96.50;;;;;;5030624;28;20032;-79
2022/06/16 04:01:21;;;;;;;5.20;3.65;;;19.50;96.60;;;;;;5014914;28;20022;-79
2022/06/16 04:04:02;;;;;;;6.40;3.45;;;19.60;96.50;;;;;;5015301;28;20094;-79
2022/06/16 04:06:35;;;;;;;4.97;3.50;;;19.60;96.70;;;;;;5014839;28;20088;-79
2022/06/16 04:09:02;;;;;;;4.25;3.33;;;19.60;96.70;;;;;;5030471;28;20148;-82
2022/06/16 04:11:28;;;;;;;4.05;3.17;;;19.70;96.00;;;;;;5015232;28;20025;-82
2022/06/16 04:14:20;;;;;;;7.90;3.65;;;19.80;95.40;;;;;;5030659;28;20391;-82
2022/06/16 04:16:49;;;;;;;7.50;3.55;;;19.80;95.30;;;;;;5012000;28;20040;-81
2022/06/16 04:19:17;;;;;;;5.47;3.75;;;19.80;95.00;;;;;;5015638;28;20022;-81
2022/06/16 04:21:47;;;;;;;5.55;3.22;;;19.80;94.90;;;;;;5030734;28;20470;-82
2022/06/16 04:24:14;;;;;;;6.43;3.38;;;19.70;94.90;;;;;;5031962;28;20033;-81
2022/06/16 04:26:41;;;;;;;7.15;3.47;;;19.70;94.70;;;;;;5016366;28;20030;-82
2022/06/16 04:29:08;;;;;;;5.05;3.28;;;19.70;94.30;;;;;;5014568;28;20102;-79
2022/06/16 04:31:35;;;;;;;6.47;3.35;;;19.80;93.90;;;;;;5029367;28;20026;-78
2022/06/16 04:34:01;;;;;;;5.03;3.20;;;19.80;93.30;;;;;;5014474;28;20032;-79
2022/06/16 04:36:27;;;;;;;4.85;3.22;;;19.80;92.70;;;;;;5013932;28;20465;-79
2022/06/16 04:38:54;;;;;;;4.85;2.95;;;19.90;92.40;;;;;;5014248;28;20026;-78
2022/06/16 04:41:20;;;;;;;4.57;3.33;;;20.00;92.10;;;;;;5029532;28;20076;-79
2022/06/16 04:43:46;;;;;;;4.85;3.30;;;20.00;91.90;;;;;;5014025;28;20053;-79
2022/06/16 04:46:13;;;;;;;5.53;3.42;;;20.10;91.70;;;;;;5014200;28;20034;-79
2022/06/16 04:48:39;;;;;;;3.70;2.90;;;20.20;91.70;;;;;;5014316;28;20037;-78
2022/06/16 04:51:05;;;;;;;4.63;2.97;;;20.30;91.40;;;;;;5029534;28;20026;-78
2022/06/16 04:53:31;;;;;;;4.63;2.90;;;20.30;91.20;;;;;;5028605;28;20026;-79
2022/06/16 04:56:00;;;;;;;4.57;2.90;;;20.40;91.40;;;;;;5014317;28;20054;-79
2022/06/16 04:58:27;;;;;;;5.80;3.20;;;20.40;91.20;;;;;;5029446;28;20058;-81
2022/06/16 05:00:54;;;;;;;4.00;2.72;;;20.40;91.10;;;;;;5030077;28;20026;-82
2022/06/16 05:03:21;;;;;;;4.63;2.65;;;20.40;91.20;;;;;;5029451;28;20036;-82
2022/06/16 05:05:49;;;;;;;6.55;3.10;;;20.40;91.20;;;;;;5030150;28;20479;-81
2022/06/16 05:08:16;;;;;;;5.65;3.20;;;20.50;91.60;;;;;;5030108;28;20038;-81
2022/06/16 05:10:42;;;;;;;6.25;3.15;;;20.60;91.10;;;;;;5030265;28;20030;-80
2022/06/16 05:13:08;;;;;;;5.50;3.38;;;20.60;91.10;;;;;;5030067;28;20121;-81
2022/06/16 05:15:34;;;;;;;4.55;3.30;;;20.50;91.10;;;;;;5030144;28;20041;-80
2022/06/16 05:18:00;;;;;;;4.72;2.70;;;20.50;91.20;;;;;;5030134;28;20045;-81
2022/06/16 05:20:26;;;;;;;4.72;3.13;;;20.60;91.80;;;;;;5013160;28;20026;-81
2022/06/16 05:22:52;;;;;;;4.35;2.75;;;20.60;91.30;;;;;;5029873;28;20067;-81
2022/06/16 05:25:17;;;;;;;6.00;3.10;;;20.60;92.00;;;;;;5013439;28;20088;-82
2022/06/16 05:27:43;;;;;;;3.88;2.95;;;20.60;91.90;;;;;;5014323;28;20026;-82
2022/06/16 05:30:09;;;;;;;4.20;2.83;;;20.60;91.40;;;;;;5029524;28;20026;-81
2022/06/16 05:32:35;;;;;;;4.72;3.17;;;20.60;91.10;;;;;;5028908;28;20304;-82
2022/06/16 05:35:01;;;;;;;6.00;2.90;;;20.70;90.90;;;;;;5029719;28;20030;-81
2022/06/16 05:37:26;;;;;;;5.57;2.70;;;20.70;90.60;;;;;;5029103;28;20030;-82
2022/06/16 05:39:52;;;;;;;4.55;2.80;;;20.80;90.30;;;;;;5029630;28;20022;-81
2022/06/16 05:42:19;;;;;;;3.90;2.50;;;20.80;90.10;;;;;;5028957;28;20032;-81
2022/06/16 05:44:45;;;;;;;4.25;2.63;;;20.80;90.30;;;;;;5029279;28;20137;-81
2022/06/16 05:47:11;;;;;;;3.80;2.70;;;20.80;90.40;;;;;;5029849;28;20505;-81
2022/06/16 05:49:38;;;;;;;4.63;2.65;;;21.00;90.00;;;;;;5029171;28;20367;-82
2022/06/16 05:52:10;;;;;;;3.95;2.83;;;21.00;89.90;;;;;;5029362;28;20061;-82
2022/06/16 05:54:37;;;;;;;3.85;2.40;;;21.00;89.90;;;;;;5029108;28;20102;-82
2022/06/16 05:57:03;;;;;;;4.28;2.60;;;21.10;88.90;;;;;;5029559;28;20030;-82
2022/06/16 05:59:29;;;;;;;7.43;2.78;;;21.10;89.20;;;;;;5029025;28;20489;-81
2022/06/16 06:01:55;;;;;;;4.65;2.50;;;21.10;89.80;;;;;;5013684;28;20101;-81
2022/06/16 06:04:21;;;;;;;5.57;2.60;;;21.20;89.60;;;;;;5013322;28;20460;-81
2022/06/16 06:06:47;;;;;;;5.10;2.53;;;21.30;89.40;;;;;;5014122;28;20479;-81
2022/06/16 06:17:25;;;;;;;7.30;2.97;;;21.50;88.70;;;;;;5013358;28;20084;-84
2022/06/16 06:19:53;;;;;;;5.78;2.90;;;21.60;89.20;;;;;;5029253;28;20456;-84
2022/06/16 06:22:24;;;;;;;6.68;2.50;;;21.70;88.70;;;;;;5013313;28;20030;-82
2022/06/16 06:25:00;;;;;;;6.20;2.50;;;21.80;88.40;;;;;;5029347;28;20041;-84
2022/06/16 06:27:45;;;;;;;4.22;2.67;;;21.80;88.10;;;;;;5013480;28;20034;-83
2022/06/16 06:30:13;;;;;;;4.40;2.67;;;21.80;88.30;;;;;;5029439;28;20530;-84
2022/06/16 06:32:39;;;;;;;7.20;2.75;;;22.00;88.00;;;;;;5031910;28;20026;-83
2022/06/16 06:35:05;;;;;;;5.45;2.85;;;22.00;87.00;;;;;;5017563;28;20100;-84
2022/06/16 06:37:31;;;;;;;4.95;2.53;;;22.00;85.80;;;;;;5032000;28;20037;-83
2022/06/16 06:39:57;;;;;;;4.65;2.38;;;22.00;85.40;;;;;;5032745;28;20025;-83
2022/06/16 06:42:23;;;;;;;6.63;2.38;;;22.00;85.20;;;;;;5016793;28;20026;-80
2022/06/16 06:44:49;;;;;;;2.88;2.50;;;22.00;85.10;;;;;;5032031;28;20054;-81
2022/06/16 06:47:24;;;;;;;4.65;3.13;;;22.00;85.50;;;;;;5017176;28;20399;-81
2022/06/16 06:49:49;;;;;;;5.68;2.60;;;22.10;86.10;;;;;;5034688;28;20034;-80
2022/06/16 06:52:16;;;;;;;7.35;2.78;;;22.20;86.70;;;;;;5033240;28;20383;-80
2022/06/16 06:54:45;;;;;;;3.63;2.47;;;22.10;85.80;;;;;;5032136;28;20368;-81
2022/06/16 06:57:14;;;;;;;4.00;2.53;;;22.00;86.00;;;;;;5016838;28;20029;-81
2022/06/16 06:59:40;;;;;;;3.67;2.53;;;22.00;86.50;;;;;;5031585;28;20338;-81
2022/06/16 07:02:07;;;;;;;4.70;2.30;;;22.00;86.10;;;;;;5032113;28;20026;-82
2022/06/16 07:04:32;;;;;;;4.50;2.40;;;22.00;86.10;;;;;;5031435;28;20034;-81
2022/06/16 07:06:58;;;;;;;5.28;2.45;;;22.00;85.80;;;;;;5032158;28;20088;-80
2022/06/16 07:09:23;;;;;;;3.30;2.47;;;22.00;85.70;;;;;;5031475;28;20022;-81
2022/06/16 07:11:49;;;;;;;5.53;2.42;;;22.00;86.00;;;;;;5016247;28;20030;-80
2022/06/16 07:14:15;;;;;;;3.33;2.30;;;22.10;86.00;;;;;;5031663;28;20125;-80
2022/06/16 07:16:41;;;;;;;4.32;2.20;;;22.10;86.40;;;;;;5031081;28;20292;-80
2022/06/16 07:19:06;;;;;;;3.53;2.20;;;22.10;85.70;;;;;;5031553;28;20037;-80
2022/06/16 07:21:32;;;;;;;4.32;2.40;;;22.10;85.10;;;;;;5015801;28;20021;-81
2022/06/16 07:23:58;;;;;;;3.13;2.28;;;22.20;85.30;;;;;;5031740;28;20034;-81
2022/06/16 07:26:25;;;;;;;4.72;2.10;;;22.20;85.00;;;;;;5015707;28;20050;-81
2022/06/16 07:28:51;;;;;;;4.82;1.98;;;22.20;85.30;;;;;;5016380;28;20072;-81
2022/06/16 07:31:17;;;;;;;5.03;2.03;;;22.30;85.40;;;;;;5016150;28;20105;-81
2022/06/16 07:33:43;;;;;;;10.57;2.60;;;22.30;84.80;;;;;;5031204;28;20038;-81
2022/06/16 07:36:10;;;;;;;2.45;1.98;;;22.30;84.30;;;;;;5015674;28;20034;-82
2022/06/16 07:38:36;;;;;;;2.95;2.20;;;22.30;84.60;;;;;;5015639;28;20029;-82
2022/06/16 07:43:47;;;;;;;5.03;2.20;;;22.40;82.80;;;;;;5014596;28;20410;-80
2022/06/16 07:46:13;;;;;;;3.72;1.92;;;22.40;83.00;;;;;;5031186;28;20034;-81
2022/06/16 07:48:39;;;;;;;4.70;2.05;;;22.40;83.00;;;;;;5015076;28;20438;-81
2022/06/16 07:51:05;;;;;;;3.42;2.13;;;22.40;82.80;;;;;;5015791;28;20022;-81
2022/06/16 07:53:30;;;;;;;6.05;1.98;;;22.40;83.10;;;;;;5030425;28;20022;-81
2022/06/16 07:55:56;;;;;;;3.17;1.65;;;22.40;83.20;;;;;;5031015;28;20109;-81
2022/06/16 07:58:23;;;;;;;4.25;2.10;;;22.50;83.10;;;;;;5015467;28;20113;-80
2022/06/16 08:00:49;;;;;;;2.50;1.80;;;22.50;82.90;;;;;;5033569;28;20052;-84
2022/06/16 08:03:15;;;;;;;3.38;2.15;;;22.50;83.40;;;;;;5015723;28;20507;-82
2022/06/16 08:05:42;;;;;;;4.13;1.75;;;22.60;82.90;;;;;;5030709;28;20399;-85
2022/06/16 08:08:08;;;;;;;2.80;1.90;;;22.70;83.30;;;;;;5015726;28;20463;-83
2022/06/16 08:10:35;;;;;;;6.88;2.10;;;22.70;81.50;;;;;;5033412;28;20052;-81
2022/06/16 08:13:01;;;;;;;5.97;2.10;;;22.80;82.10;;;;;;5023926;28;20026;-81
2022/06/16 08:15:26;;;;;;;3.92;1.80;;;22.80;82.30;;;;;;5039876;28;20025;-82
2022/06/16 08:17:55;;;;;;;3.25;2.10;;;22.90;82.10;;;;;;5040574;28;20525;-78
2022/06/16 08:20:21;;;;;;;4.55;2.10;;;22.90;81.60;;;;;;5022505;28;20033;-79
2022/06/16 08:22:47;;;;;;;4.10;2.08;;;22.90;81.50;;;;;;5024057;28;20026;-80
2022/06/16 08:25:15;;;;;;;4.22;2.10;;;22.90;81.20;;;;;;5040706;28;20026;-81
2022/06/16 08:27:44;;;;;;;3.47;2.28;;;23.00;81.40;;;;;;5023139;28;20401;-86
2022/06/16 08:30:14;;;;;;;7.28;1.88;;;23.00;80.30;;;;;;5024170;28;20045;-87
2022/06/16 08:32:41;;;;;;;4.50;2.03;;;23.10;80.50;;;;;;5022406;28;20091;-85
2022/06/16 08:35:07;;;;;;;4.25;2.05;;;23.10;80.00;;;;;;5032012;28;20467;-91
2022/06/16 08:37:33;;;;;;;3.38;2.03;;;23.20;80.00;;;;;;5021382;28;20026;-85
2022/06/16 08:39:59;;;;;;;3.53;1.92;;;23.20;79.60;;;;;;5022295;28;20021;-88
2022/06/16 08:42:28;;;;;;;2.05;1.85;;;23.30;79.60;;;;;;5037575;28;20031;-90
2022/06/16 08:45:08;;;;;;;3.97;2.03;;;23.30;79.50;;;;;;5023277;28;20081;-83
2022/06/16 08:47:42;;;;;;;3.03;1.95;;;23.40;79.30;;;;;;5036912;28;20033;-80
2022/06/16 08:50:59;;;;;;;3.60;2.00;;;23.40;79.00;;;;;;5023484;28;20029;-80
2022/06/16 08:53:52;;;;;;;5.47;2.00;;;23.50;78.70;;;;;;5000122;28;20447;-80
2022/06/16 08:56:42;;;;;;;3.42;1.80;;;23.50;76.70;;;;;;5021166;28;20029;-82
2022/06/16 08:59:33;;;;;;;3.63;2.00;;;23.60;76.60;;;;;;5021839;28;20014;-83
2022/06/16 09:02:02;;;;;;;2.10;1.85;;;23.70;76.40;;;;;;5037608;28;20026;-82
2022/06/16 09:04:31;;;;;;;4.57;2.13;;;23.70;76.80;;;;;;5032453;28;20084;-81
2022/06/16 09:07:18;;;;;;;7.22;2.13;;;23.80;75.40;;;;;;5024376;28;20033;-83
2022/06/16 09:10:15;;;;;;;6.93;2.03;;;23.90;74.80;;;;;;5028195;28;20520;-82
2022/06/16 09:13:15;;;;;;;3.53;2.55;;;23.90;75.20;;;;;;5034296;28;20025;-81
2022/06/16 09:16:00;;;;;;;3.03;1.70;;;23.90;73.80;;;;;;5040984;28;20490;-82
2022/06/16 09:19:08;;;;;;;8.27;2.10;;;24.10;74.30;;;;;;5017727;28;20247;-82
2022/06/16 09:22:01;;;;;;;2.13;1.77;;;24.10;74.10;;;;;;5022235;28;20123;-82
2022/06/16 09:24:58;;;;;;;6.88;2.20;;;24.20;74.20;;;;;;5019509;28;20030;-82
2022/06/16 09:27:54;;;;;;;2.35;1.95;;;24.30;74.10;;;;;;5021463;28;20018;-82
2022/06/16 09:30:26;;;;;;;2.95;1.67;;;24.30;74.20;;;;;;5020275;28;20068;-84
2022/06/16 09:33:00;;;;;;;4.03;1.83;;;24.40;73.90;;;;;;5023400;28;20053;-84
2022/06/16 09:35:34;;;;;;;5.47;2.13;;;24.40;73.70;;;;;;5017541;28;20060;-84
2022/06/16 09:38:08;;;;;;;3.53;2.22;;;24.30;74.10;;;;;;5021665;28;20410;-83
2022/06/16 09:40:48;;;;;;;4.90;2.10;;;24.40;74.60;;;;;;5036752;28;20053;-81
2022/06/16 09:43:41;;;;;;;3.72;1.98;;;24.40;72.90;;;;;;5022756;28;20486;-82
2022/06/16 09:46:21;;;;;;;4.40;1.95;;;24.50;71.90;;;;;;5015729;28;20406;-82
2022/06/16 09:48:56;;;;;;;3.42;1.80;;;24.50;72.30;;;;;;5021531;28;20101;-83
2022/06/16 09:51:30;;;;;;;3.88;1.92;;;24.50;72.10;;;;;;5019335;28;20055;-83
2022/06/16 09:54:02;;;;;;;4.22;2.13;;;24.50;73.00;;;;;;5036801;28;20455;-83
2022/06/16 09:56:57;;;;;;;3.83;1.98;;;24.50;72.60;;;;;;5020288;28;20029;-82
2022/06/16 09:59:23;;;;;;;5.70;1.77;;;24.50;72.20;;;;;;5033243;28;20041;-83
2022/06/16 10:02:10;;;;;;;4.03;1.98;;;24.50;72.50;;;;;;5036132;28;20021;-83
2022/06/16 10:04:36;;;;;;;3.92;1.88;;;24.60;73.30;;;;;;5032813;28;20079;-84
2022/06/16 10:07:16;;;;;;;4.93;1.70;;;24.50;72.90;;;;;;5026919;28;20033;-84
2022/06/16 10:10:01;;;;;;;4.75;2.20;;;24.60;72.30;;;;;;5044231;28;20103;-83
2022/06/16 10:12:39;;;;;;;4.18;2.00;;;24.70;70.60;;;;;;5022579;28;20021;-81
2022/06/16 10:15:12;;;;;;;4.03;1.73;;;24.70;70.30;;;;;;5040388;28;20087;-81
2022/06/16 10:17:40;;;;;;;2.92;1.60;;;24.70;70.00;;;;;;5040541;28;20030;-80
2022/06/16 10:20:06;;;;;;;6.00;2.30;;;24.90;68.60;;;;;;5045213;28;20029;-81
2022/06/16 10:22:35;;;;;;;4.15;1.88;;;24.80;68.80;;;;;;5040789;28;20048;-83
2022/06/16 10:25:03;;;;;;;4.15;1.95;;;24.90;69.00;;;;;;5025227;28;20056;-82
2022/06/16 10:27:35;;;;;;;4.93;1.88;;;24.90;68.80;;;;;;5025538;28;20021;-82
2022/06/16 10:30:05;;;;;;;2.95;1.70;;;24.90;69.90;;;;;;5042733;28;20057;-81
2022/06/16 10:32:39;;;;;;;1.63;1.48;;;25.00;69.40;;;;;;5045666;28;20025;-79
2022/06/16 10:35:07;;;;;;;5.03;1.92;;;25.00;68.30;;;;;;5040401;28;20095;-84
2022/06/16 10:37:37;;;;;;;1.98;1.55;;;25.00;68.40;;;;;;5027239;28;20466;-82
2022/06/16 10:40:35;;;;;;;4.75;1.95;;;25.00;69.40;;;;;;5026941;28;20116;-83
2022/06/16 10:43:08;;;;;;;6.03;1.52;;;25.10;68.30;;;;;;5025120;28;20422;-84
2022/06/16 10:45:37;;;;;;;2.67;1.88;;;25.00;68.00;;;;;;5024029;28;20045;-82
2022/06/16 10:48:24;;;;;;;4.65;1.98;;;25.10;67.50;;;;;;5044144;28;20029;-81
2022/06/16 10:51:06;;;;;;;3.65;2.08;;;25.20;67.20;;;;;;5023533;28;20026;-81
2022/06/16 10:53:39;;;;;;;2.90;1.83;;;25.30;66.80;;;;;;5029665;28;20053;-81
2022/06/16 10:56:13;;;;;;;3.38;1.88;;;25.40;66.00;;;;;;5041201;28;20048;-81
2022/06/16 10:59:14;;;;;;;2.40;1.92;;;25.40;65.90;;;;;;5040796;28;20080;-84
2022/06/16 11:01:47;;;;;;;4.07;2.00;;;25.40;66.00;;;;;;4987029;28;20029;-83
2022/06/16 11:04:19;;;;;;;5.72;2.05;;;25.40;66.30;;;;;;5026081;28;20053;-80
2022/06/16 11:06:55;;;;;;;4.90;2.03;;;25.40;66.10;;;;;;5025659;28;20033;-81
2022/06/16 11:09:27;;;;;;;3.33;2.20;;;25.50;66.20;;;;;;5026087;28;20018;-80
2022/06/16 11:11:58;;;;;;;4.53;2.10;;;25.60;67.00;;;;;;5024470;28;20030;-80
2022/06/16 11:14:26;;;;;;;13.77;2.53;;;25.70;65.60;;;;;;5027238;28;20466;-85
2022/06/16 11:16:55;;;;;;;5.45;2.20;;;25.90;64.80;;;;;;5027982;28;20030;-78
2022/06/16 11:19:36;;;;;;;12.77;6.78;;;25.90;65.00;;;;;;5039808;28;20018;-85
2022/06/16 11:22:04;;;;;;;4.85;2.33;;;25.90;63.70;;;;;;5024790;28;20026;-80
2022/06/16 11:24:32;;;;;;;5.55;2.00;;;26.00;63.00;;;;;;5026152;28;20062;-83
2022/06/16 11:27:04;;;;;;;3.78;2.05;;;26.00;63.90;;;;;;5023636;28;20047;-83
2022/06/16 11:29:33;;;;;;;3.40;1.90;;;26.10;64.10;;;;;;5040134;28;20030;-83
2022/06/16 11:32:19;;;;;;;5.20;2.50;;;26.20;64.50;;;;;;5022908;28;20029;-85
2022/06/16 11:34:46;;;;;;;1.83;1.60;;;26.40;63.70;;;;;;5023356;28;20037;-84
2022/06/16 11:37:33;;;;;;;4.35;1.88;;;26.50;64.20;;;;;;5021876;28;20029;-83
2022/06/16 11:40:08;;;;;;;4.00;2.05;;;26.60;63.10;;;;;;5040632;28;20037;-84
2022/06/16 11:42:45;;;;;;;3.58;2.38;;;26.60;63.10;;;;;;5036419;28;20386;-80
2022/06/16 11:45:33;;;;;;;3.50;2.22;;;26.80;61.80;;;;;;5038402;28;20076;-83
2022/06/16 11:48:20;;;;;;;2.28;1.70;;;26.90;61.30;;;;;;5038587;28;20029;-80
2022/06/16 11:50:50;;;;;;;3.42;2.08;;;26.90;61.50;;;;;;5025635;28;20026;-80
2022/06/16 11:53:31;;;;;;;3.17;2.03;;;27.10;61.70;;;;;;5024395;28;20033;-80
2022/06/16 11:55:59;;;;;;;4.70;2.05;;;27.20;60.40;;;;;;5022378;28;20033;-81
2022/06/16 11:58:41;;;;;;;4.20;2.10;;;27.30;60.70;;;;;;5020743;28;20025;-83
2022/06/16 12:01:38;;;;;;;6.03;2.00;;;27.30;60.90;;;;;;5024959;28;20018;-78
2022/06/16 12:04:22;;;;;;;4.38;1.88;;;27.40;59.90;;;;;;5026916;28;20072;-79
2022/06/16 12:07:16;;;;;;;5.43;2.15;;;27.50;61.40;;;;;;5039574;28;20037;-80
2022/06/16 12:09:48;;;;;;;3.72;1.88;;;27.70;59.20;;;;;;5040111;28;20104;-81
2022/06/16 12:12:27;;;;;;;7.28;2.38;;;27.90;59.20;;;;;;5023445;28;20077;-81
2022/06/16 12:15:08;;;;;;;6.10;2.20;;;28.10;58.80;;;;;;5023244;28;20080;-81
2022/06/16 12:17:56;;;;;;;5.45;2.30;;;28.20;58.10;;;;;;5035651;28;20025;-78
2022/06/16 12:20:37;;;;;;;3.20;2.00;;;28.30;58.60;;;;;;5030120;28;20057;-80
2022/06/16 12:23:19;;;;;;;3.05;2.08;;;28.40;58.90;;;;;;5016486;28;20018;-80
2022/06/16 12:26:15;;;;;;;3.97;1.92;;;28.40;58.60;;;;;;5021008;28;20382;-80
2022/06/16 12:29:00;;;;;;;5.82;1.95;;;28.50;58.10;;;;;;5042270;28;20375;-80
2022/06/16 12:31:32;;;;;;;4.70;2.20;;;28.50;58.20;;;;;;5036891;28;20055;-82
2022/06/16 12:34:05;;;;;;;4.68;2.30;;;28.40;57.10;;;;;;5038053;28;20059;-83
2022/06/16 12:36:49;;;;;;;2.20;2.00;;;28.40;57.90;;;;;;5018909;28;20503;-83
2022/06/16 12:39:26;;;;;;;5.40;2.15;;;28.30;57.30;;;;;;5026127;28;20026;-82
2022/06/16 12:41:56;;;;;;;2.47;2.20;;;28.40;57.00;;;;;;5037377;28;20072;-82
2022/06/16 12:44:42;;;;;;;7.18;2.50;;;28.50;57.00;;;;;;5039624;28;20045;-81
2022/06/16 12:47:20;;;;;;;3.97;2.10;;;28.70;57.00;;;;;;5032207;28;20052;-81
2022/06/16 12:49:51;;;;;;;4.03;2.08;;;28.60;56.40;;;;;;5020019;28;20052;-81
2022/06/16 12:52:21;;;;;;;2.35;1.85;;;28.70;56.70;;;;;;5031016;28;20464;-81
2022/06/16 12:55:01;;;;;;;2.95;2.00;;;28.60;56.50;;;;;;5007142;28;20041;-81
2022/06/16 12:57:43;;;;;;;3.33;2.15;;;28.70;57.20;;;;;;5035768;28;20026;-83
2022/06/16 13:00:13;;;;;;;2.38;2.13;;;28.70;58.10;;;;;;5033260;28;20033;-82
2022/06/16 13:03:01;;;;;;;6.65;2.33;;;29.00;57.70;;;;;;5028916;28;20116;-81
2022/06/16 13:05:28;;;;;;;3.25;2.00;;;29.20;56.20;;;;;;5022837;28;20033;-81
2022/06/16 13:07:54;;;;;;;3.08;2.10;;;29.20;55.10;;;;;;5039060;28;20479;-81
2022/06/16 13:10:20;;;;;;;3.47;2.33;;;29.60;55.20;;;;;;5037424;28;20025;-83
2022/06/16 13:12:56;;;;;;;7.30;2.20;;;29.90;55.60;;;;;;5029895;28;20364;-82
2022/06/16 13:15:53;;;;;;;2.83;2.17;;;29.80;54.10;;;;;;5023187;28;20049;-83
2022/06/16 13:18:24;;;;;;;3.20;2.28;;;29.70;53.90;;;;;;4984265;28;20090;-82
2022/06/16 13:20:55;;;;;;;4.03;2.08;;;29.60;53.40;;;;;;4972512;28;20026;-88
2022/06/16 13:23:45;;;;;;;4.57;1.90;;;29.80;53.50;;;;;;4986218;28;20090;-85
2022/06/16 13:26:20;;;;;;;3.05;2.00;;;29.80;54.00;;;;;;4985490;28;20043;-86
2022/06/16 13:29:07;;;;;;;3.00;2.25;;;29.80;52.60;;;;;;4985899;28;20046;-84
2022/06/16 13:32:00;;;;;;;4.35;2.10;;;30.10;53.00;;;;;;4985879;28;20027;-86
2022/06/16 13:34:52;;;;;;;3.83;2.00;;;30.70;52.30;;;;;;4984529;28;20399;-83